sensor_id;sensor_type;location;lat;lon;timestamp;temperature;humidity
11748;DHT22;5931;48.832;9.072;2023-10-31T00:01:49;11.10;99.90
11748;DHT22;5931;48.832;9.072;2023-10-31T00:04:15;11.10;99.90
11748;DHT22;5931;48.832;9.072;2023-10-31T00:06:41;11.10;99.90
11748;DHT22;5931;48.832;9.072;2023-10-31T00:09:06;11.10;99.90
11748;DHT22;5931;48.832;9.072;2023-10-31T00:11:32;11.10;99.90
11748;DHT22;5931;48.832;9.072;2023-10-31T00:13:58;11.10;99.90
11748;DHT22;5931;48.832;9.072;2023-10-31T00:16:23;11.10;99.90
11748;DHT22;5931;48.832;9.072;2023-10-31T00:18:49;11.10;99.90
11748;DHT22;5931;48.832;9.072;2023-10-31T00:21:15;11.10;99.90
11748;DHT22;5931;48.832;9.072;2023-10-31T00:23:47;11.10;99.90
11748;DHT22;5931;48.832;9.072;2023-10-31T00:26:14;11.00;99.90
11748;DHT22;5931;48.832;9.072;2023-10-31T00:28:45;11.00;99.90
11748;DHT22;5931;48.832;9.072;2023-10-31T00:31:11;11.00;99.90
11748;DHT22;5931;48.832;9.072;2023-10-31T00:33:37;11.00;99.90
11748;DHT22;5931;48.832;9.072;2023-10-31T00:36:04;10.90;99.90
11748;DHT22;5931;48.832;9.072;2023-10-31T00:38:29;10.90;99.90
11748;DHT22;5931;48.832;9.072;2023-10-31T00:40:55;10.90;99.90
11748;DHT22;5931;48.832;9.072;2023-10-31T00:43:21;10.80;99.90
11748;DHT22;5931;48.832;9.072;2023-10-31T00:45:47;10.80;99.90
11748;DHT22;5931;48.832;9.072;2023-10-31T00:48:12;10.80;99.90
11748;DHT22;5931;48.832;9.072;2023-10-31T00:50:38;10.80;99.90
11748;DHT22;5931;48.832;9.072;2023-10-31T00:53:03;10.80;99.90
11748;DHT22;5931;48.832;9.072;2023-10-31T00:55:29;10.80;99.90
11748;DHT22;5931;48.832;9.072;2023-10-31T00:57:55;10.80;99.90
11748;DHT22;5931;48.832;9.072;2023-10-31T01:00:20;10.70;99.90
11748;DHT22;5931;48.832;9.072;2023-10-31T01:02:46;10.70;99.90
11748;DHT22;5931;48.832;9.072;2023-10-31T01:05:12;10.70;99.90
11748;DHT22;5931;48.832;9.072;2023-10-31T01:07:37;10.60;99.90
11748;DHT22;5931;48.832;9.072;2023-10-31T01:10:03;10.60;99.90
11748;DHT22;5931;48.832;9.072;2023-10-31T01:12:30;10.50;99.90
11748;DHT22;5931;48.832;9.072;2023-10-31T01:14:56;10.50;99.90
11748;DHT22;5931;48.832;9.072;2023-10-31T01:17:22;10.40;99.90
11748;DHT22;5931;48.832;9.072;2023-10-31T01:19:48;10.40;99.90
11748;DHT22;5931;48.832;9.072;2023-10-31T01:22:13;10.30;99.90
11748;DHT22;5931;48.832;9.072;2023-10-31T01:24:39;10.20;99.90
11748;DHT22;5931;48.832;9.072;2023-10-31T01:27:05;10.10;99.90
11748;DHT22;5931;48.832;9.072;2023-10-31T01:29:30;10.00;99.90
11748;DHT22;5931;48.832;9.072;2023-10-31T01:31:56;9.90;99.90
11748;DHT22;5931;48.832;9.072;2023-10-31T01:34:22;9.70;99.90
11748;DHT22;5931;48.832;9.072;2023-10-31T01:36:48;9.70;99.90
11748;DHT22;5931;48.832;9.072;2023-10-31T01:39:13;9.60;99.90
11748;DHT22;5931;48.832;9.072;2023-10-31T01:41:42;9.50;99.90
11748;DHT22;5931;48.832;9.072;2023-10-31T01:44:09;9.40;99.90
11748;DHT22;5931;48.832;9.072;2023-10-31T01:46:35;9.40;99.90
11748;DHT22;5931;48.832;9.072;2023-10-31T01:49:01;9.40;99.90
11748;DHT22;5931;48.832;9.072;2023-10-31T01:51:28;9.30;99.90
11748;DHT22;5931;48.832;9.072;2023-10-31T01:53:55;9.30;99.90
11748;DHT22;5931;48.832;9.072;2023-10-31T01:56:22;9.30;99.90
11748;DHT22;5931;48.832;9.072;2023-10-31T01:58:49;9.30;99.90
11748;DHT22;5931;48.832;9.072;2023-10-31T02:01:15;9.30;99.90
11748;DHT22;5931;48.832;9.072;2023-10-31T02:03:42;9.30;99.90
11748;DHT22;5931;48.832;9.072;2023-10-31T02:06:08;9.40;99.90
11748;DHT22;5931;48.832;9.072;2023-10-31T02:08:33;9.30;99.90
11748;DHT22;5931;48.832;9.072;2023-10-31T02:10:59;9.30;99.90
11748;DHT22;5931;48.832;9.072;2023-10-31T02:13:25;9.20;99.90
11748;DHT22;5931;48.832;9.072;2023-10-31T02:15:51;9.20;99.90
11748;DHT22;5931;48.832;9.072;2023-10-31T02:18:17;9.20;99.90
11748;DHT22;5931;48.832;9.072;2023-10-31T02:20:43;9.30;99.90
11748;DHT22;5931;48.832;9.072;2023-10-31T02:23:08;9.30;99.90
11748;DHT22;5931;48.832;9.072;2023-10-31T02:25:34;9.30;99.90
11748;DHT22;5931;48.832;9.072;2023-10-31T02:27:59;9.30;99.90
11748;DHT22;5931;48.832;9.072;2023-10-31T02:30:26;9.20;99.90
11748;DHT22;5931;48.832;9.072;2023-10-31T02:32:51;9.20;99.90
11748;DHT22;5931;48.832;9.072;2023-10-31T02:35:18;9.30;99.90
11748;DHT22;5931;48.832;9.072;2023-10-31T02:37:45;9.20;99.90
11748;DHT22;5931;48.832;9.072;2023-10-31T02:40:12;9.30;99.90
11748;DHT22;5931;48.832;9.072;2023-10-31T02:42:38;9.30;99.90
11748;DHT22;5931;48.832;9.072;2023-10-31T02:45:05;9.20;99.90
11748;DHT22;5931;48.832;9.072;2023-10-31T02:47:31;9.20;99.90
11748;DHT22;5931;48.832;9.072;2023-10-31T02:49:57;9.10;99.90
11748;DHT22;5931;48.832;9.072;2023-10-31T02:52:22;9.10;99.90
11748;DHT22;5931;48.832;9.072;2023-10-31T02:54:48;9.10;99.90
11748;DHT22;5931;48.832;9.072;2023-10-31T02:57:15;9.10;99.90
11748;DHT22;5931;48.832;9.072;2023-10-31T02:59:40;9.00;99.90
11748;DHT22;5931;48.832;9.072;2023-10-31T03:02:06;8.90;99.90
11748;DHT22;5931;48.832;9.072;2023-10-31T03:04:32;8.90;99.90
11748;DHT22;5931;48.832;9.072;2023-10-31T03:06:57;8.90;99.90
11748;DHT22;5931;48.832;9.072;2023-10-31T03:09:23;8.90;99.90
11748;DHT22;5931;48.832;9.072;2023-10-31T03:11:49;8.90;99.90
11748;DHT22;5931;48.832;9.072;2023-10-31T03:14:14;8.80;99.90
11748;DHT22;5931;48.832;9.072;2023-10-31T03:16:40;8.80;99.90
11748;DHT22;5931;48.832;9.072;2023-10-31T03:19:06;8.70;99.90
11748;DHT22;5931;48.832;9.072;2023-10-31T03:21:32;8.70;99.90
11748;DHT22;5931;48.832;9.072;2023-10-31T03:23:59;8.70;99.90
11748;DHT22;5931;48.832;9.072;2023-10-31T03:26:24;8.70;99.90
11748;DHT22;5931;48.832;9.072;2023-10-31T03:28:50;8.70;99.90
11748;DHT22;5931;48.832;9.072;2023-10-31T03:31:16;8.70;99.90
11748;DHT22;5931;48.832;9.072;2023-10-31T03:33:42;8.80;99.90
11748;DHT22;5931;48.832;9.072;2023-10-31T03:36:08;8.80;99.90
11748;DHT22;5931;48.832;9.072;2023-10-31T03:38:35;8.80;99.90
11748;DHT22;5931;48.832;9.072;2023-10-31T03:41:02;8.80;99.90
11748;DHT22;5931;48.832;9.072;2023-10-31T03:43:28;8.80;99.90
11748;DHT22;5931;48.832;9.072;2023-10-31T03:45:55;8.90;99.90
11748;DHT22;5931;48.832;9.072;2023-10-31T03:48:21;8.90;99.90
11748;DHT22;5931;48.832;9.072;2023-10-31T03:50:47;8.90;99.90
11748;DHT22;5931;48.832;9.072;2023-10-31T03:53:12;8.90;99.90
11748;DHT22;5931;48.832;9.072;2023-10-31T03:55:38;8.90;99.90
11748;DHT22;5931;48.832;9.072;2023-10-31T03:58:04;8.90;99.90
11748;DHT22;5931;48.832;9.072;2023-10-31T04:00:31;8.90;99.90
11748;DHT22;5931;48.832;9.072;2023-10-31T04:02:56;8.90;99.90
11748;DHT22;5931;48.832;9.072;2023-10-31T04:05:22;8.90;99.90
11748;DHT22;5931;48.832;9.072;2023-10-31T04:07:49;8.90;99.90
11748;DHT22;5931;48.832;9.072;2023-10-31T04:10:15;8.90;99.90
11748;DHT22;5931;48.832;9.072;2023-10-31T04:12:41;9.00;99.90
11748;DHT22;5931;48.832;9.072;2023-10-31T04:15:08;9.10;99.90
11748;DHT22;5931;48.832;9.072;2023-10-31T04:17:34;9.20;99.90
11748;DHT22;5931;48.832;9.072;2023-10-31T04:20:00;9.20;99.90
11748;DHT22;5931;48.832;9.072;2023-10-31T04:22:26;9.20;99.90
11748;DHT22;5931;48.832;9.072;2023-10-31T04:24:51;9.10;99.90
11748;DHT22;5931;48.832;9.072;2023-10-31T04:27:17;9.10;99.90
11748;DHT22;5931;48.832;9.072;2023-10-31T04:29:44;9.10;99.90
11748;DHT22;5931;48.832;9.072;2023-10-31T04:32:09;9.10;99.90
11748;DHT22;5931;48.832;9.072;2023-10-31T04:34:35;9.00;99.90
11748;DHT22;5931;48.832;9.072;2023-10-31T04:37:01;8.90;99.90
11748;DHT22;5931;48.832;9.072;2023-10-31T04:39:26;9.00;99.90
11748;DHT22;5931;48.832;9.072;2023-10-31T04:41:52;9.00;99.90
11748;DHT22;5931;48.832;9.072;2023-10-31T04:44:18;8.90;99.90
11748;DHT22;5931;48.832;9.072;2023-10-31T04:46:43;8.90;99.90
11748;DHT22;5931;48.832;9.072;2023-10-31T04:49:09;8.90;99.90
11748;DHT22;5931;48.832;9.072;2023-10-31T04:51:38;8.80;99.90
11748;DHT22;5931;48.832;9.072;2023-10-31T04:54:04;8.80;99.90
11748;DHT22;5931;48.832;9.072;2023-10-31T04:56:30;8.70;99.90
11748;DHT22;5931;48.832;9.072;2023-10-31T04:58:56;8.70;99.90
11748;DHT22;5931;48.832;9.072;2023-10-31T05:01:21;8.60;99.90
11748;DHT22;5931;48.832;9.072;2023-10-31T05:03:47;8.60;99.90
11748;DHT22;5931;48.832;9.072;2023-10-31T05:06:13;8.50;99.90
11748;DHT22;5931;48.832;9.072;2023-10-31T05:08:38;8.50;99.90
11748;DHT22;5931;48.832;9.072;2023-10-31T05:11:04;8.50;99.90
11748;DHT22;5931;48.832;9.072;2023-10-31T05:13:30;8.40;99.90
11748;DHT22;5931;48.832;9.072;2023-10-31T05:15:55;8.40;99.90
11748;DHT22;5931;48.832;9.072;2023-10-31T05:18:21;8.30;99.90
11748;DHT22;5931;48.832;9.072;2023-10-31T05:20:47;8.40;99.90
11748;DHT22;5931;48.832;9.072;2023-10-31T05:23:13;8.30;99.90
11748;DHT22;5931;48.832;9.072;2023-10-31T05:25:39;8.30;99.90
11748;DHT22;5931;48.832;9.072;2023-10-31T05:28:05;8.30;99.90
11748;DHT22;5931;48.832;9.072;2023-10-31T05:30:31;8.20;99.90
11748;DHT22;5931;48.832;9.072;2023-10-31T05:32:56;8.10;99.90
11748;DHT22;5931;48.832;9.072;2023-10-31T05:35:22;8.10;99.90
11748;DHT22;5931;48.832;9.072;2023-10-31T05:37:48;8.00;99.90
11748;DHT22;5931;48.832;9.072;2023-10-31T05:40:15;7.90;99.90
11748;DHT22;5931;48.832;9.072;2023-10-31T05:42:41;7.90;99.90
11748;DHT22;5931;48.832;9.072;2023-10-31T05:45:07;7.90;99.90
11748;DHT22;5931;48.832;9.072;2023-10-31T05:47:33;8.00;99.90
11748;DHT22;5931;48.832;9.072;2023-10-31T05:49:59;8.00;99.90
11748;DHT22;5931;48.832;9.072;2023-10-31T05:52:28;7.90;99.90
11748;DHT22;5931;48.832;9.072;2023-10-31T05:54:55;8.00;99.90
11748;DHT22;5931;48.832;9.072;2023-10-31T05:57:20;8.00;99.90
11748;DHT22;5931;48.832;9.072;2023-10-31T05:59:46;8.10;99.90
11748;DHT22;5931;48.832;9.072;2023-10-31T06:02:13;8.00;99.90
11748;DHT22;5931;48.832;9.072;2023-10-31T06:04:38;8.00;99.90
11748;DHT22;5931;48.832;9.072;2023-10-31T06:07:04;8.20;99.90
11748;DHT22;5931;48.832;9.072;2023-10-31T06:09:30;8.20;99.90
11748;DHT22;5931;48.832;9.072;2023-10-31T06:11:55;8.20;99.90
11748;DHT22;5931;48.832;9.072;2023-10-31T06:14:21;8.30;99.90
11748;DHT22;5931;48.832;9.072;2023-10-31T06:16:47;8.40;99.90
11748;DHT22;5931;48.832;9.072;2023-10-31T06:19:12;8.40;99.90
11748;DHT22;5931;48.832;9.072;2023-10-31T06:21:38;8.50;99.90
11748;DHT22;5931;48.832;9.072;2023-10-31T06:24:04;8.40;99.90
11748;DHT22;5931;48.832;9.072;2023-10-31T06:26:30;8.50;99.90
11748;DHT22;5931;48.832;9.072;2023-10-31T06:28:56;8.50;99.90
11748;DHT22;5931;48.832;9.072;2023-10-31T06:31:22;8.50;99.90
11748;DHT22;5931;48.832;9.072;2023-10-31T06:33:47;8.50;99.90
11748;DHT22;5931;48.832;9.072;2023-10-31T06:36:13;8.50;99.90
11748;DHT22;5931;48.832;9.072;2023-10-31T06:38:38;8.50;99.90
11748;DHT22;5931;48.832;9.072;2023-10-31T06:41:04;8.50;99.90
11748;DHT22;5931;48.832;9.072;2023-10-31T06:43:30;8.50;99.90
11748;DHT22;5931;48.832;9.072;2023-10-31T06:45:55;8.50;99.90
11748;DHT22;5931;48.832;9.072;2023-10-31T06:48:22;8.60;99.90
11748;DHT22;5931;48.832;9.072;2023-10-31T06:50:48;8.60;99.90
11748;DHT22;5931;48.832;9.072;2023-10-31T06:53:14;8.70;99.90
11748;DHT22;5931;48.832;9.072;2023-10-31T06:55:39;8.80;99.90
11748;DHT22;5931;48.832;9.072;2023-10-31T06:58:05;8.90;99.90
11748;DHT22;5931;48.832;9.072;2023-10-31T07:00:30;9.00;99.90
11748;DHT22;5931;48.832;9.072;2023-10-31T07:02:56;9.10;99.90
11748;DHT22;5931;48.832;9.072;2023-10-31T07:05:24;9.20;99.90
11748;DHT22;5931;48.832;9.072;2023-10-31T07:07:51;9.30;99.90
11748;DHT22;5931;48.832;9.072;2023-10-31T07:10:16;9.40;99.90
11748;DHT22;5931;48.832;9.072;2023-10-31T07:12:42;9.50;99.90
11748;DHT22;5931;48.832;9.072;2023-10-31T07:15:08;9.50;99.90
11748;DHT22;5931;48.832;9.072;2023-10-31T07:17:33;9.60;99.90
11748;DHT22;5931;48.832;9.072;2023-10-31T07:19:59;9.60;99.90
11748;DHT22;5931;48.832;9.072;2023-10-31T07:22:25;9.60;99.90
11748;DHT22;5931;48.832;9.072;2023-10-31T07:24:51;9.70;99.90
11748;DHT22;5931;48.832;9.072;2023-10-31T07:27:17;9.70;99.90
11748;DHT22;5931;48.832;9.072;2023-10-31T07:29:43;9.80;99.90
11748;DHT22;5931;48.832;9.072;2023-10-31T07:32:09;9.90;99.90
11748;DHT22;5931;48.832;9.072;2023-10-31T07:34:35;9.90;99.90
11748;DHT22;5931;48.832;9.072;2023-10-31T07:37:01;10.00;99.90
11748;DHT22;5931;48.832;9.072;2023-10-31T07:39:27;10.10;99.90
11748;DHT22;5931;48.832;9.072;2023-10-31T07:41:53;10.10;99.90
11748;DHT22;5931;48.832;9.072;2023-10-31T07:44:18;10.20;99.90
11748;DHT22;5931;48.832;9.072;2023-10-31T07:46:44;10.30;99.90
11748;DHT22;5931;48.832;9.072;2023-10-31T07:49:10;10.40;99.90
11748;DHT22;5931;48.832;9.072;2023-10-31T07:51:36;10.40;99.90
11748;DHT22;5931;48.832;9.072;2023-10-31T07:54:01;10.50;99.90
11748;DHT22;5931;48.832;9.072;2023-10-31T07:56:27;10.50;99.90
11748;DHT22;5931;48.832;9.072;2023-10-31T07:58:53;10.60;99.90
11748;DHT22;5931;48.832;9.072;2023-10-31T08:01:20;10.70;99.90
11748;DHT22;5931;48.832;9.072;2023-10-31T08:03:47;10.80;99.90
11748;DHT22;5931;48.832;9.072;2023-10-31T08:06:13;10.80;99.90
11748;DHT22;5931;48.832;9.072;2023-10-31T08:08:39;10.80;99.90
11748;DHT22;5931;48.832;9.072;2023-10-31T08:11:09;10.90;99.90
11748;DHT22;5931;48.832;9.072;2023-10-31T08:13:36;11.00;99.90
11748;DHT22;5931;48.832;9.072;2023-10-31T08:16:03;11.00;99.90
11748;DHT22;5931;48.832;9.072;2023-10-31T08:18:29;11.10;99.90
11748;DHT22;5931;48.832;9.072;2023-10-31T08:20:54;11.20;99.90
11748;DHT22;5931;48.832;9.072;2023-10-31T08:23:20;11.30;99.90
11748;DHT22;5931;48.832;9.072;2023-10-31T08:25:46;11.30;99.90
11748;DHT22;5931;48.832;9.072;2023-10-31T08:28:12;11.40;99.90
11748;DHT22;5931;48.832;9.072;2023-10-31T08:30:38;11.40;99.90
11748;DHT22;5931;48.832;9.072;2023-10-31T08:33:04;11.50;99.90
11748;DHT22;5931;48.832;9.072;2023-10-31T08:35:30;11.50;99.90
11748;DHT22;5931;48.832;9.072;2023-10-31T08:37:56;11.50;99.90
11748;DHT22;5931;48.832;9.072;2023-10-31T08:40:22;11.50;99.90
11748;DHT22;5931;48.832;9.072;2023-10-31T08:42:48;11.50;99.90
11748;DHT22;5931;48.832;9.072;2023-10-31T08:45:13;11.60;99.90
11748;DHT22;5931;48.832;9.072;2023-10-31T08:47:39;11.60;99.90
11748;DHT22;5931;48.832;9.072;2023-10-31T08:50:05;11.60;99.90
11748;DHT22;5931;48.832;9.072;2023-10-31T08:52:34;11.60;99.90
11748;DHT22;5931;48.832;9.072;2023-10-31T08:54:59;11.70;99.90
11748;DHT22;5931;48.832;9.072;2023-10-31T08:57:25;11.60;99.90
11748;DHT22;5931;48.832;9.072;2023-10-31T08:59:51;11.70;99.90
11748;DHT22;5931;48.832;9.072;2023-10-31T09:02:16;11.80;99.90
11748;DHT22;5931;48.832;9.072;2023-10-31T09:04:42;11.80;99.90
11748;DHT22;5931;48.832;9.072;2023-10-31T09:07:08;11.90;99.90
11748;DHT22;5931;48.832;9.072;2023-10-31T09:09:33;11.90;99.90
11748;DHT22;5931;48.832;9.072;2023-10-31T09:11:59;12.00;99.90
11748;DHT22;5931;48.832;9.072;2023-10-31T09:14:24;12.10;99.90
11748;DHT22;5931;48.832;9.072;2023-10-31T09:16:50;12.00;99.90
11748;DHT22;5931;48.832;9.072;2023-10-31T09:19:16;12.10;99.90
11748;DHT22;5931;48.832;9.072;2023-10-31T09:21:41;12.20;99.90
11748;DHT22;5931;48.832;9.072;2023-10-31T09:24:08;12.40;99.90
11748;DHT22;5931;48.832;9.072;2023-10-31T09:26:33;12.50;99.90
11748;DHT22;5931;48.832;9.072;2023-10-31T09:28:59;12.50;99.90
11748;DHT22;5931;48.832;9.072;2023-10-31T09:31:25;12.50;99.90
11748;DHT22;5931;48.832;9.072;2023-10-31T09:33:50;12.40;99.90
11748;DHT22;5931;48.832;9.072;2023-10-31T09:36:16;12.40;99.90
11748;DHT22;5931;48.832;9.072;2023-10-31T09:38:42;12.50;99.90
11748;DHT22;5931;48.832;9.072;2023-10-31T09:41:07;12.70;99.90
11748;DHT22;5931;48.832;9.072;2023-10-31T09:43:33;12.90;99.90
11748;DHT22;5931;48.832;9.072;2023-10-31T09:45:59;13.10;99.90
11748;DHT22;5931;48.832;9.072;2023-10-31T09:48:29;13.30;99.90
11748;DHT22;5931;48.832;9.072;2023-10-31T09:50:55;13.40;99.90
11748;DHT22;5931;48.832;9.072;2023-10-31T09:53:21;13.50;99.90
11748;DHT22;5931;48.832;9.072;2023-10-31T09:55:48;13.40;99.90
11748;DHT22;5931;48.832;9.072;2023-10-31T09:58:14;13.40;99.90
11748;DHT22;5931;48.832;9.072;2023-10-31T10:00:40;13.50;99.90
11748;DHT22;5931;48.832;9.072;2023-10-31T10:03:08;13.40;99.90
11748;DHT22;5931;48.832;9.072;2023-10-31T10:05:39;13.40;99.90
11748;DHT22;5931;48.832;9.072;2023-10-31T10:08:06;13.40;99.90
11748;DHT22;5931;48.832;9.072;2023-10-31T10:10:33;13.30;99.90
11748;DHT22;5931;48.832;9.072;2023-10-31T10:12:59;13.30;99.90
11748;DHT22;5931;48.832;9.072;2023-10-31T10:15:28;13.40;99.90
11748;DHT22;5931;48.832;9.072;2023-10-31T10:17:54;13.40;99.90
11748;DHT22;5931;48.832;9.072;2023-10-31T10:20:20;13.40;99.90
11748;DHT22;5931;48.832;9.072;2023-10-31T10:22:46;13.50;99.90
11748;DHT22;5931;48.832;9.072;2023-10-31T10:25:15;13.40;99.90
11748;DHT22;5931;48.832;9.072;2023-10-31T10:27:47;13.30;99.90
11748;DHT22;5931;48.832;9.072;2023-10-31T10:30:14;13.50;99.90
11748;DHT22;5931;48.832;9.072;2023-10-31T10:32:39;13.70;99.90
11748;DHT22;5931;48.832;9.072;2023-10-31T10:35:06;13.50;99.90
11748;DHT22;5931;48.832;9.072;2023-10-31T10:37:32;13.30;99.90
11748;DHT22;5931;48.832;9.072;2023-10-31T10:40:03;13.30;99.90
11748;DHT22;5931;48.832;9.072;2023-10-31T10:42:33;13.50;99.90
11748;DHT22;5931;48.832;9.072;2023-10-31T10:45:03;13.70;99.90
11748;DHT22;5931;48.832;9.072;2023-10-31T10:47:31;13.90;99.90
11748;DHT22;5931;48.832;9.072;2023-10-31T10:50:01;14.10;99.90
11748;DHT22;5931;48.832;9.072;2023-10-31T10:52:34;14.20;99.90
11748;DHT22;5931;48.832;9.072;2023-10-31T10:55:04;14.30;99.90
11748;DHT22;5931;48.832;9.072;2023-10-31T10:57:38;14.40;99.90
11748;DHT22;5931;48.832;9.072;2023-10-31T11:00:08;14.20;99.90
11748;DHT22;5931;48.832;9.072;2023-10-31T11:02:39;14.20;99.90
11748;DHT22;5931;48.832;9.072;2023-10-31T11:05:09;14.50;99.90
11748;DHT22;5931;48.832;9.072;2023-10-31T11:07:38;14.70;99.90
11748;DHT22;5931;48.832;9.072;2023-10-31T11:10:04;14.70;99.90
11748;DHT22;5931;48.832;9.072;2023-10-31T11:12:31;14.80;99.90
11748;DHT22;5931;48.832;9.072;2023-10-31T11:14:58;14.50;99.90
11748;DHT22;5931;48.832;9.072;2023-10-31T11:17:28;14.40;99.90
11748;DHT22;5931;48.832;9.072;2023-10-31T11:19:55;14.30;99.90
11748;DHT22;5931;48.832;9.072;2023-10-31T11:22:21;14.40;99.90
11748;DHT22;5931;48.832;9.072;2023-10-31T11:24:49;14.50;99.90
11748;DHT22;5931;48.832;9.072;2023-10-31T11:27:17;14.50;99.90
11748;DHT22;5931;48.832;9.072;2023-10-31T11:29:43;14.40;99.90
11748;DHT22;5931;48.832;9.072;2023-10-31T11:32:11;14.40;99.90
11748;DHT22;5931;48.832;9.072;2023-10-31T11:34:38;14.50;99.90
11748;DHT22;5931;48.832;9.072;2023-10-31T11:37:27;14.70;99.90
11748;DHT22;5931;48.832;9.072;2023-10-31T11:40:21;14.60;99.90
11748;DHT22;5931;48.832;9.072;2023-10-31T11:42:52;14.70;99.90
11748;DHT22;5931;48.832;9.072;2023-10-31T11:45:33;14.60;99.90
11748;DHT22;5931;48.832;9.072;2023-10-31T11:47:59;14.50;99.90
11748;DHT22;5931;48.832;9.072;2023-10-31T11:50:25;14.40;99.90
11748;DHT22;5931;48.832;9.072;2023-10-31T11:53:05;14.40;99.90
11748;DHT22;5931;48.832;9.072;2023-10-31T11:55:44;14.30;99.90
11748;DHT22;5931;48.832;9.072;2023-10-31T11:58:22;14.20;99.90
11748;DHT22;5931;48.832;9.072;2023-10-31T12:00:53;14.00;99.90
11748;DHT22;5931;48.832;9.072;2023-10-31T12:03:25;13.70;99.90
11748;DHT22;5931;48.832;9.072;2023-10-31T12:05:58;13.60;99.90
11748;DHT22;5931;48.832;9.072;2023-10-31T12:08:31;13.50;99.90
11748;DHT22;5931;48.832;9.072;2023-10-31T12:11:24;13.50;99.90
11748;DHT22;5931;48.832;9.072;2023-10-31T12:13:56;13.70;99.90
11748;DHT22;5931;48.832;9.072;2023-10-31T12:16:30;13.70;99.90
11748;DHT22;5931;48.832;9.072;2023-10-31T12:18:59;13.90;99.90
11748;DHT22;5931;48.832;9.072;2023-10-31T12:21:43;14.00;99.90
11748;DHT22;5931;48.832;9.072;2023-10-31T12:24:10;14.20;99.90
11748;DHT22;5931;48.832;9.072;2023-10-31T12:26:36;14.30;99.90
11748;DHT22;5931;48.832;9.072;2023-10-31T12:29:13;14.40;99.90
11748;DHT22;5931;48.832;9.072;2023-10-31T12:31:49;14.40;99.90
11748;DHT22;5931;48.832;9.072;2023-10-31T12:34:16;14.50;99.90
11748;DHT22;5931;48.832;9.072;2023-10-31T12:36:43;14.40;99.90
11748;DHT22;5931;48.832;9.072;2023-10-31T12:39:11;14.50;99.90
11748;DHT22;5931;48.832;9.072;2023-10-31T12:41:39;14.40;99.90
11748;DHT22;5931;48.832;9.072;2023-10-31T12:44:05;14.30;99.90
11748;DHT22;5931;48.832;9.072;2023-10-31T12:46:32;14.20;99.90
11748;DHT22;5931;48.832;9.072;2023-10-31T12:48:58;14.00;99.90
11748;DHT22;5931;48.832;9.072;2023-10-31T12:51:24;13.80;99.90
11748;DHT22;5931;48.832;9.072;2023-10-31T12:53:51;13.80;99.90
11748;DHT22;5931;48.832;9.072;2023-10-31T12:56:39;13.70;99.90
11748;DHT22;5931;48.832;9.072;2023-10-31T12:59:06;13.50;99.90
11748;DHT22;5931;48.832;9.072;2023-10-31T13:01:45;13.50;99.90
11748;DHT22;5931;48.832;9.072;2023-10-31T13:04:11;13.70;99.90
11748;DHT22;5931;48.832;9.072;2023-10-31T13:06:37;14.10;99.90
11748;DHT22;5931;48.832;9.072;2023-10-31T13:09:03;14.40;99.90
11748;DHT22;5931;48.832;9.072;2023-10-31T13:11:36;14.70;99.90
11748;DHT22;5931;48.832;9.072;2023-10-31T13:14:05;14.90;99.90
11748;DHT22;5931;48.832;9.072;2023-10-31T13:16:32;14.70;99.90
11748;DHT22;5931;48.832;9.072;2023-10-31T13:18:59;14.60;99.90
11748;DHT22;5931;48.832;9.072;2023-10-31T13:21:24;14.40;99.90
11748;DHT22;5931;48.832;9.072;2023-10-31T13:23:50;14.30;99.90
11748;DHT22;5931;48.832;9.072;2023-10-31T13:26:16;14.10;99.90
11748;DHT22;5931;48.832;9.072;2023-10-31T13:28:42;14.00;99.90
11748;DHT22;5931;48.832;9.072;2023-10-31T13:31:08;13.90;99.90
11748;DHT22;5931;48.832;9.072;2023-10-31T13:33:34;13.90;99.90
11748;DHT22;5931;48.832;9.072;2023-10-31T13:36:00;13.80;99.90
11748;DHT22;5931;48.832;9.072;2023-10-31T13:38:26;13.80;99.90
11748;DHT22;5931;48.832;9.072;2023-10-31T13:40:51;13.70;99.90
11748;DHT22;5931;48.832;9.072;2023-10-31T13:43:17;13.80;99.90
11748;DHT22;5931;48.832;9.072;2023-10-31T13:45:43;13.80;99.90
11748;DHT22;5931;48.832;9.072;2023-10-31T13:48:08;13.80;99.90
11748;DHT22;5931;48.832;9.072;2023-10-31T13:50:36;13.80;99.90
11748;DHT22;5931;48.832;9.072;2023-10-31T13:53:01;13.80;99.90
11748;DHT22;5931;48.832;9.072;2023-10-31T13:55:30;13.90;99.90
11748;DHT22;5931;48.832;9.072;2023-10-31T13:57:55;13.90;99.90
11748;DHT22;5931;48.832;9.072;2023-10-31T14:00:21;14.00;99.90
11748;DHT22;5931;48.832;9.072;2023-10-31T14:02:47;14.10;99.90
11748;DHT22;5931;48.832;9.072;2023-10-31T14:05:12;14.10;99.90
11748;DHT22;5931;48.832;9.072;2023-10-31T14:07:38;14.10;99.90
11748;DHT22;5931;48.832;9.072;2023-10-31T14:10:04;14.20;99.90
11748;DHT22;5931;48.832;9.072;2023-10-31T14:12:30;14.20;99.90
11748;DHT22;5931;48.832;9.072;2023-10-31T14:14:56;14.20;99.90
11748;DHT22;5931;48.832;9.072;2023-10-31T14:17:22;14.20;99.90
11748;DHT22;5931;48.832;9.072;2023-10-31T14:19:48;14.00;99.90
11748;DHT22;5931;48.832;9.072;2023-10-31T14:22:14;14.00;99.90
11748;DHT22;5931;48.832;9.072;2023-10-31T14:24:40;13.90;99.90
11748;DHT22;5931;48.832;9.072;2023-10-31T14:27:06;13.80;99.90
11748;DHT22;5931;48.832;9.072;2023-10-31T14:29:32;13.80;99.90
11748;DHT22;5931;48.832;9.072;2023-10-31T14:32:05;13.70;99.90
11748;DHT22;5931;48.832;9.072;2023-10-31T14:34:31;13.60;99.90
11748;DHT22;5931;48.832;9.072;2023-10-31T14:36:57;13.60;99.90
11748;DHT22;5931;48.832;9.072;2023-10-31T14:39:22;13.50;99.90
11748;DHT22;5931;48.832;9.072;2023-10-31T14:41:48;13.30;99.90
11748;DHT22;5931;48.832;9.072;2023-10-31T14:44:14;13.20;99.90
11748;DHT22;5931;48.832;9.072;2023-10-31T14:46:40;13.00;99.90
11748;DHT22;5931;48.832;9.072;2023-10-31T14:49:06;12.80;99.90
11748;DHT22;5931;48.832;9.072;2023-10-31T14:51:32;12.50;99.90
11748;DHT22;5931;48.832;9.072;2023-10-31T14:53:57;12.30;99.90
11748;DHT22;5931;48.832;9.072;2023-10-31T14:56:24;12.10;99.90
11748;DHT22;5931;48.832;9.072;2023-10-31T14:58:49;11.80;99.90
11748;DHT22;5931;48.832;9.072;2023-10-31T15:01:15;11.60;99.90
11748;DHT22;5931;48.832;9.072;2023-10-31T15:03:41;11.50;99.90
11748;DHT22;5931;48.832;9.072;2023-10-31T15:06:07;11.40;99.90
11748;DHT22;5931;48.832;9.072;2023-10-31T15:08:33;11.30;99.90
11748;DHT22;5931;48.832;9.072;2023-10-31T15:10:59;11.30;99.90
11748;DHT22;5931;48.832;9.072;2023-10-31T15:13:24;11.30;99.90
11748;DHT22;5931;48.832;9.072;2023-10-31T15:15:50;11.30;99.90
11748;DHT22;5931;48.832;9.072;2023-10-31T15:18:16;11.20;99.90
11748;DHT22;5931;48.832;9.072;2023-10-31T15:20:42;11.20;99.90
11748;DHT22;5931;48.832;9.072;2023-10-31T15:23:09;11.10;99.90
11748;DHT22;5931;48.832;9.072;2023-10-31T15:25:34;11.00;99.90
11748;DHT22;5931;48.832;9.072;2023-10-31T15:28:00;11.00;99.90
11748;DHT22;5931;48.832;9.072;2023-10-31T15:30:26;10.90;99.90
11748;DHT22;5931;48.832;9.072;2023-10-31T15:32:51;10.90;99.90
11748;DHT22;5931;48.832;9.072;2023-10-31T15:35:18;10.80;99.90
11748;DHT22;5931;48.832;9.072;2023-10-31T15:37:43;10.80;99.90
11748;DHT22;5931;48.832;9.072;2023-10-31T15:40:10;10.70;99.90
11748;DHT22;5931;48.832;9.072;2023-10-31T15:42:36;10.70;99.90
11748;DHT22;5931;48.832;9.072;2023-10-31T15:45:01;10.80;99.90
11748;DHT22;5931;48.832;9.072;2023-10-31T15:47:28;10.90;99.90
11748;DHT22;5931;48.832;9.072;2023-10-31T15:49:54;10.90;99.90